Alyeska Resort
Hourly Weather - Base Weather Site
ALY_BASE_HR 7/25/2014
CLICK TO VIEW GRAPH!!

        DATE  TIME   Air  BATT   H2o   H2o   Rel
                    Temp  Volt  Inch Since  Hum%
                      F   AVG   1HR  0600   AVG

   7/25/2014 18:00    59 13.53  0.00  0.01    72
   7/25/2014 17:00    59 13.52  0.00  0.01    72
   7/25/2014 16:00    60 13.51  0.00  0.01    71
   7/25/2014 15:00    59 13.52  0.00  0.01    71
   7/25/2014 14:00    59 13.53  0.00  0.01    74
   7/25/2014 13:00    58 13.54  0.00  0.01    76
   7/25/2014 12:00    58 13.56  0.00  0.01    78
   7/25/2014 11:00    57 13.59  0.00  0.01    82
   7/25/2014 10:00    56 13.63  0.00  0.01    87
   7/25/2014 09:00    55 13.65  0.00  0.01    90
   7/25/2014 08:00    53 13.67  0.01  0.01    92
   7/25/2014 07:00    52 13.68  0.00  0.00    93
   7/25/2014 06:00    52 13.68  0.02  0.03    92
   7/25/2014 05:00    52 13.66  0.00  0.01    91
   7/25/2014 04:00    53 13.65  0.01  0.01    87
   7/25/2014 03:00    54 13.63  0.00  0.00    86
   7/25/2014 02:00    55 13.61  0.00  0.00    83
   7/25/2014 01:00    55 13.59  0.00  0.00    78
   7/24/2014 24:00    56 13.58  0.00  0.00    75
   7/24/2014 23:00    57 13.55  0.00  0.00    73
   7/24/2014 22:00    59 13.51  0.00  0.00    70
   7/24/2014 21:00    60 13.48  0.00  0.00    67
   7/24/2014 20:00    63 13.44  0.00  0.00    56
   7/24/2014 19:00    65 13.41  0.00  0.00    50


CLICK TO VIEW GRAPH!!